sim
Sign-in with your pilot id or email,
or register
Callsign
Passwort

Schedule Details

Flight Number: DLH2677 (1)
Departure: Catania Fontanarossa Airport (LICC) at 13:30
Arrival: Munich Airport (EDDM) at 15:40
Route: Lufthansa Passenger Schedule. Enter filed route here before submitting Pirep.

Weather Information
Getting current METAR information for LICC 201950Z 29005KT CAVOK 25/21 Q1016
Getting current METAR information for EDDM 201950Z 29001KT CAVOK 11/10 Q1016 NOSIG

Schedule Frequency

Route Map